Time,TemperatureF,DewpointF,PressureIn,WindDirection,WindDirectionDegrees,WindSpeedMPH,WindSpeedGustMPH,Humidity,HourlyPrecipIn,Conditions,Clouds,dailyrainin,SoftwareType,DateUTC
2013-03-04 00:00:00,33.7,29.8,29.92,NNE,23,0.4,2.5,86,0.00,,,0.00,WUHU216HW,2013-03-04 08:00:00,
2013-03-04 00:05:00,33.7,29.8,29.92,North,0,1.8,1.8,86,0.00,,,0.00,WUHU216HW,2013-03-04 08:05:00,
2013-03-04 00:10:00,33.5,29.7,29.92,NNE,23,1.1,1.8,86,0.00,,,0.00,WUHU216HW,2013-03-04 08:10:00,
2013-03-04 00:15:00,33.5,29.7,29.92,NNE,23,0.0,1.3,86,0.00,,,0.00,WUHU216HW,2013-03-04 08:15:00,
2013-03-04 00:20:00,33.5,29.7,29.91,NNE,23,0.0,0.9,86,0.00,,,0.00,WUHU216HW,2013-03-04 08:20:00,
2013-03-04 00:25:00,33.3,29.5,29.91,North,0,1.1,1.1,86,0.00,,,0.00,WUHU216HW,2013-03-04 08:25:00,
2013-03-04 00:30:00,33.3,29.5,29.92,North,0,0.0,1.1,86,0.00,,,0.00,WUHU216HW,2013-03-04 08:30:00,
2013-03-04 00:35:00,33.3,29.5,29.92,North,0,0.0,1.1,86,0.00,,,0.00,WUHU216HW,2013-03-04 08:35:00,
2013-03-04 00:40:00,33.1,29.3,29.92,North,0,0.0,0.0,86,0.00,,,0.00,WUHU216HW,2013-03-04 08:40:00,
2013-03-04 00:45:00,32.8,29.0,29.92,East,90,0.0,0.0,86,0.00,,,0.00,WUHU216HW,2013-03-04 08:45:00,
2013-03-04 00:50:00,32.8,29.0,29.92,East,90,0.0,0.0,86,0.00,,,0.00,WUHU216HW,2013-03-04 08:50:00,
2013-03-04 00:55:00,32.6,28.9,29.92,NNE,23,1.1,1.1,86,0.00,,,0.00,WUHU216HW,2013-03-04 08:55:00,
2013-03-04 01:00:00,32.4,28.7,29.91,NNE,23,1.8,1.8,86,0.00,,,0.00,WUHU216HW,2013-03-04 09:00:00,
2013-03-04 01:05:00,32.2,28.8,29.91,NNE,23,1.1,2.2,87,0.00,,,0.00,WUHU216HW,2013-03-04 09:05:00,
2013-03-04 01:10:00,32.4,29.0,29.91,North,0,0.0,2.2,87,0.00,,,0.00,WUHU216HW,2013-03-04 09:10:00,
2013-03-04 01:15:00,32.2,28.8,29.91,North,0,0.0,1.8,87,0.00,,,0.00,WUHU216HW,2013-03-04 09:15:00,
2013-03-04 01:20:00,32.0,28.6,29.91,North,0,0.0,0.0,87,0.00,,,0.00,WUHU216HW,2013-03-04 09:20:00,
2013-03-04 01:25:00,32.0,28.6,29.91,North,0,0.7,1.3,87,0.00,,,0.00,WUHU216HW,2013-03-04 09:25:00,
2013-03-04 01:30:00,32.0,28.6,29.91,North,0,0.0,1.3,87,0.00,,,0.00,WUHU216HW,2013-03-04 09:30:00,
2013-03-04 01:35:00,31.9,28.4,29.91,North,0,0.0,1.1,87,0.00,,,0.00,WUHU216HW,2013-03-04 09:35:00,
2013-03-04 01:40:00,31.9,28.4,29.91,North,0,0.9,0.9,87,0.00,,,0.00,WUHU216HW,2013-03-04 09:40:00,
2013-03-04 01:45:00,31.9,28.8,29.91,NW,315,1.1,1.3,88,0.00,,,0.00,WUHU216HW,2013-03-04 09:45:00,
2013-03-04 01:50:00,31.7,28.6,29.91,NNE,23,2.5,2.5,88,0.00,,,0.00,WUHU216HW,2013-03-04 09:50:00,
2013-03-04 01:55:00,31.9,28.8,29.91,NNE,23,2.0,2.5,88,0.00,,,0.00,WUHU216HW,2013-03-04 09:55:00,
2013-03-04 02:00:00,31.9,29.1,29.91,NNE,23,1.3,2.5,89,0.00,,,0.00,WUHU216HW,2013-03-04 10:00:00,
2013-03-04 02:05:00,32.0,29.3,29.91,NNE,23,1.8,1.8,89,0.00,,,0.00,WUHU216HW,2013-03-04 10:05:00,
2013-03-04 02:10:00,32.0,29.3,29.91,NNE,23,1.8,1.8,89,0.00,,,0.00,WUHU216HW,2013-03-04 10:10:00,
2013-03-04 02:15:00,32.0,29.3,29.90,NNE,23,0.7,1.8,89,0.00,,,0.00,WUHU216HW,2013-03-04 10:15:00,
2013-03-04 02:20:00,32.0,29.3,29.90,NNE,23,1.1,1.3,89,0.00,,,0.00,WUHU216HW,2013-03-04 10:20:00,
2013-03-04 02:25:00,32.0,29.3,29.90,NNE,23,2.0,2.0,89,0.00,,,0.00,WUHU216HW,2013-03-04 10:25:00,
2013-03-04 02:30:00,32.2,29.4,29.90,NNE,23,1.6,2.2,89,0.00,,,0.00,WUHU216HW,2013-03-04 10:30:00,
2013-03-04 02:35:00,32.0,29.3,29.89,NNE,23,1.1,2.2,89,0.00,,,0.00,WUHU216HW,2013-03-04 10:35:00,
2013-03-04 02:40:00,32.0,29.3,29.89,NE,45,0.9,1.8,89,0.00,,,0.00,WUHU216HW,2013-03-04 10:40:00,
2013-03-04 02:45:00,32.0,29.5,29.89,NNE,23,1.8,3.4,90,0.00,,,0.00,WUHU216HW,2013-03-04 10:45:00,
2013-03-04 02:50:00,32.4,29.9,29.89,North,0,2.0,3.4,90,0.00,,,0.00,WUHU216HW,2013-03-04 10:50:00,
2013-03-04 02:55:00,32.6,30.0,29.89,NNE,23,0.4,2.7,90,0.00,,,0.00,WUHU216HW,2013-03-04 10:55:00,
2013-03-04 03:00:00,32.8,30.2,29.89,NE,45,0.0,2.7,90,0.00,,,0.00,WUHU216HW,2013-03-04 11:00:00,
2013-03-04 03:05:00,32.9,30.3,29.89,NNW,338,1.1,1.3,90,0.00,,,0.00,WUHU216HW,2013-03-04 11:05:00,
2013-03-04 03:10:00,32.9,30.3,29.89,NW,315,1.1,1.1,90,0.00,,,0.00,WUHU216HW,2013-03-04 11:10:00,
2013-03-04 03:15:00,32.8,30.2,29.89,WNW,293,0.7,2.2,90,0.00,,,0.00,WUHU216HW,2013-03-04 11:15:00,
2013-03-04 03:20:00,32.6,30.0,29.89,NW,315,0.9,2.2,90,0.00,,,0.00,WUHU216HW,2013-03-04 11:20:00,
2013-03-04 03:25:00,32.4,29.9,29.89,NW,315,1.3,1.8,90,0.00,,,0.00,WUHU216HW,2013-03-04 11:25:00,
2013-03-04 03:30:00,32.2,29.7,29.89,North,0,0.9,3.1,90,0.00,,,0.00,WUHU216HW,2013-03-04 11:30:00,
2013-03-04 03:35:00,32.4,29.9,29.89,West,270,1.8,3.1,90,0.00,,,0.00,WUHU216HW,2013-03-04 11:35:00,
2013-03-04 03:40:00,32.2,29.7,29.89,North,0,0.9,2.7,90,0.00,,,0.00,WUHU216HW,2013-03-04 11:40:00,
2013-03-04 03:45:00,32.0,29.5,29.89,North,0,1.1,2.0,90,0.00,,,0.00,WUHU216HW,2013-03-04 11:45:00,
2013-03-04 03:50:00,32.0,29.3,29.89,North,0,0.4,2.0,89,0.00,,,0.00,WUHU216HW,2013-03-04 11:50:00,
2013-03-04 03:55:00,31.7,28.9,29.89,North,0,0.9,2.5,89,0.00,,,0.00,WUHU216HW,2013-03-04 11:55:00,
2013-03-04 04:00:00,31.5,28.7,29.88,North,0,0.9,2.5,89,0.00,,,0.00,WUHU216HW,2013-03-04 12:00:00,
2013-03-04 04:05:00,31.9,29.3,29.88,North,0,2.2,3.6,90,0.00,,,0.00,WUHU216HW,2013-03-04 12:05:00,
2013-03-04 04:10:00,32.0,29.8,29.88,North,0,2.0,3.6,91,0.00,,,0.00,WUHU216HW,2013-03-04 12:10:00,
2013-03-04 04:15:00,32.2,30.0,29.88,NNE,23,0.4,3.4,91,0.00,,,0.00,WUHU216HW,2013-03-04 12:15:00,
2013-03-04 04:20:00,32.4,30.1,29.88,NNW,338,1.6,1.8,91,0.00,,,0.00,WUHU216HW,2013-03-04 12:20:00,
2013-03-04 04:25:00,32.6,30.2,29.88,NNW,338,0.9,1.8,91,0.00,,,0.00,WUHU216HW,2013-03-04 12:25:00,
2013-03-04 04:30:00,32.4,30.1,29.88,NNW,338,0.0,1.8,91,0.00,,,0.00,WUHU216HW,2013-03-04 12:30:00,
2013-03-04 04:35:00,32.2,30.0,29.88,NNW,338,0.0,0.0,91,0.00,,,0.00,WUHU216HW,2013-03-04 12:35:00,
2013-03-04 04:40:00,31.9,29.1,29.88,NNW,338,0.0,0.0,89,0.00,,,0.00,WUHU216HW,2013-03-04 12:40:00,
2013-03-04 04:45:00,31.7,28.9,29.88,NNW,338,0.0,0.0,89,0.00,,,0.00,WUHU216HW,2013-03-04 12:45:00,
2013-03-04 04:50:00,31.5,28.7,29.88,NNW,338,0.0,0.0,89,0.00,,,0.00,WUHU216HW,2013-03-04 12:50:00,
2013-03-04 04:55:00,31.3,28.5,29.88,NNW,338,0.0,0.0,89,0.00,,,0.00,WUHU216HW,2013-03-04 12:55:00,
2013-03-04 05:00:00,31.1,28.4,29.88,NNW,338,1.3,1.3,89,0.00,,,0.00,WUHU216HW,2013-03-04 13:00:00,
2013-03-04 05:05:00,31.1,28.4,29.89,North,0,0.4,1.3,89,0.00,,,0.00,WUHU216HW,2013-03-04 13:05:00,
2013-03-04 05:10:00,31.0,28.2,29.88,North,0,0.2,1.3,89,0.00,,,0.00,WUHU216HW,2013-03-04 13:10:00,
2013-03-04 05:15:00,30.8,28.0,29.88,North,0,0.0,0.7,89,0.00,,,0.00,WUHU216HW,2013-03-04 13:15:00,
2013-03-04 05:20:00,30.8,28.0,29.88,North,0,0.9,1.1,89,0.00,,,0.00,WUHU216HW,2013-03-04 13:20:00,
2013-03-04 05:25:00,30.8,28.3,29.88,North,0,0.7,1.1,90,0.00,,,0.00,WUHU216HW,2013-03-04 13:25:00,
2013-03-04 05:30:00,31.0,28.4,29.88,North,0,1.6,1.6,90,0.00,,,0.00,WUHU216HW,2013-03-04 13:30:00,
2013-03-04 05:35:00,31.1,28.6,29.88,NNE,23,1.8,1.8,90,0.00,,,0.00,WUHU216HW,2013-03-04 13:35:00,
2013-03-04 05:40:00,31.1,28.6,29.88,NNE,23,0.0,1.8,90,0.00,,,0.00,WUHU216HW,2013-03-04 13:40:00,
2013-03-04 05:45:00,31.3,28.8,29.87,North,0,0.4,1.3,90,0.00,,,0.00,WUHU216HW,2013-03-04 13:45:00,
2013-03-04 05:50:00,31.3,28.8,29.87,North,0,1.1,1.6,90,0.00,,,0.00,WUHU216HW,2013-03-04 13:50:00,
2013-03-04 05:55:00,31.7,29.2,29.87,NNE,23,1.3,3.4,90,0.00,,,0.00,WUHU216HW,2013-03-04 13:55:00,
2013-03-04 06:00:00,31.9,29.3,29.87,NE,45,3.1,3.4,90,0.00,,,0.00,WUHU216HW,2013-03-04 14:00:00,
2013-03-04 06:05:00,31.9,29.3,29.87,NNE,23,0.7,3.4,90,0.00,,,0.00,WUHU216HW,2013-03-04 14:05:00,
2013-03-04 06:10:00,32.0,30.1,29.86,NNE,23,1.8,1.8,92,0.00,,,0.00,WUHU216HW,2013-03-04 14:10:00,
2013-03-04 06:15:00,32.4,30.3,29.86,North,0,2.5,3.4,92,0.00,,,0.00,WUHU216HW,2013-03-04 14:15:00,
2013-03-04 06:20:00,32.6,30.5,29.86,North,0,0.9,3.4,92,0.00,,,0.00,WUHU216HW,2013-03-04 14:20:00,
2013-03-04 06:25:00,32.6,30.5,29.86,NNE,23,1.3,2.5,92,0.00,,,0.00,WUHU216HW,2013-03-04 14:25:00,
2013-03-04 06:30:00,32.6,30.5,29.86,North,0,1.8,3.1,92,0.00,,,0.00,WUHU216HW,2013-03-04 14:30:00,
2013-03-04 06:35:00,32.8,30.7,29.86,NNW,338,1.6,3.1,92,0.00,,,0.00,WUHU216HW,2013-03-04 14:35:00,
2013-03-04 06:40:00,32.8,30.7,29.86,North,0,1.1,2.2,92,0.00,,,0.00,WUHU216HW,2013-03-04 14:40:00,
2013-03-04 06:45:00,32.8,30.7,29.86,NNW,338,2.9,2.9,92,0.00,,,0.00,WUHU216HW,2013-03-04 14:45:00,
2013-03-04 06:50:00,32.9,30.9,29.86,North,0,0.9,3.1,92,0.00,,,0.00,WUHU216HW,2013-03-04 14:50:00,
2013-03-04 06:55:00,32.9,30.9,29.86,North,0,0.2,3.1,92,0.00,,,0.00,WUHU216HW,2013-03-04 14:55:00,
2013-03-04 07:00:00,32.9,30.9,29.86,NNE,23,1.1,2.0,92,0.00,,,0.00,WUHU216HW,2013-03-04 15:00:00,
2013-03-04 07:05:00,32.9,30.9,29.87,North,0,0.7,2.0,92,0.00,,,0.00,WUHU216HW,2013-03-04 15:05:00,
2013-03-04 07:10:00,33.1,31.1,29.87,NNW,338,1.3,2.0,92,0.00,,,0.00,WUHU216HW,2013-03-04 15:10:00,
2013-03-04 07:15:00,33.1,30.8,29.86,NNW,338,0.2,2.0,91,0.00,,,0.00,WUHU216HW,2013-03-04 15:15:00,
2013-03-04 07:20:00,33.1,30.8,29.86,North,0,0.0,1.1,91,0.00,,,0.00,WUHU216HW,2013-03-04 15:20:00,
2013-03-04 07:25:00,32.9,30.6,29.86,North,0,0.2,1.1,91,0.00,,,0.00,WUHU216HW,2013-03-04 15:25:00,
2013-03-04 07:30:00,33.1,30.8,29.86,North,0,0.7,1.1,91,0.00,,,0.00,WUHU216HW,2013-03-04 15:30:00,
2013-03-04 07:35:00,33.3,31.0,29.86,North,0,0.0,0.7,91,0.00,,,0.00,WUHU216HW,2013-03-04 15:35:00,
2013-03-04 07:40:00,33.5,31.1,29.86,North,0,0.7,0.7,91,0.00,,,0.00,WUHU216HW,2013-03-04 15:40:00,
2013-03-04 07:45:00,33.7,31.2,29.86,WNW,293,1.3,1.3,91,0.00,,,0.00,WUHU216HW,2013-03-04 15:45:00,
2013-03-04 07:50:00,33.8,31.4,29.87,NW,315,1.6,1.8,91,0.00,,,0.00,WUHU216HW,2013-03-04 15:50:00,
2013-03-04 07:55:00,34.2,31.8,29.87,North,0,0.4,1.8,91,0.00,,,0.00,WUHU216HW,2013-03-04 15:55:00,
2013-03-04 08:00:00,34.4,32.2,29.86,NNE,23,3.6,3.6,92,0.00,,,0.00,WUHU216HW,2013-03-04 16:00:00,
2013-03-04 08:05:00,34.7,32.6,29.86,NNE,23,2.9,3.6,92,0.00,,,0.00,WUHU216HW,2013-03-04 16:05:00,
2013-03-04 08:10:00,34.9,32.8,29.86,North,0,2.5,4.0,92,0.00,,,0.00,WUHU216HW,2013-03-04 16:10:00,
2013-03-04 08:15:00,35.3,33.1,29.86,North,0,1.6,4.0,92,0.00,,,0.00,WUHU216HW,2013-03-04 16:15:00,
2013-03-04 08:20:00,35.6,33.2,29.86,East,90,2.0,2.9,91,0.00,,,0.00,WUHU216HW,2013-03-04 16:20:00,
2013-03-04 08:25:00,35.8,33.4,29.85,NE,45,3.4,4.5,91,0.00,,,0.00,WUHU216HW,2013-03-04 16:25:00,
2013-03-04 08:30:00,36.2,33.8,29.85,NE,45,2.5,4.5,91,0.00,,,0.00,WUHU216HW,2013-03-04 16:30:00,
2013-03-04 08:35:00,36.4,33.7,29.86,NNE,23,0.9,4.7,90,0.00,,,0.00,WUHU216HW,2013-03-04 16:35:00,
2013-03-04 08:40:00,36.9,34.2,29.86,NNW,338,1.1,4.7,90,0.00,,,0.00,WUHU216HW,2013-03-04 16:40:00,
2013-03-04 08:45:00,37.1,34.1,29.86,North,0,1.6,4.0,89,0.00,,,0.00,WUHU216HW,2013-03-04 16:45:00,
2013-03-04 08:50:00,37.4,34.7,29.85,NNW,338,1.8,3.8,90,0.00,,,0.00,WUHU216HW,2013-03-04 16:50:00,
2013-03-04 08:55:00,37.6,34.9,29.85,North,0,2.9,3.6,90,0.00,,,0.00,WUHU216HW,2013-03-04 16:55:00,
2013-03-04 09:00:00,37.8,35.1,29.85,East,90,1.8,3.6,90,0.00,,,0.00,WUHU216HW,2013-03-04 17:00:00,
2013-03-04 09:05:00,38.2,35.2,29.84,East,90,3.4,4.7,89,0.00,,,0.00,WUHU216HW,2013-03-04 17:05:00,
2013-03-04 09:10:00,38.3,35.1,29.84,NNW,338,3.4,5.1,88,0.00,,,0.00,WUHU216HW,2013-03-04 17:10:00,
2013-03-04 09:15:00,38.5,35.3,29.84,NE,45,3.8,5.1,88,0.00,,,0.00,WUHU216HW,2013-03-04 17:15:00,
2013-03-04 09:20:00,38.9,35.3,29.84,NE,45,5.4,5.6,87,0.00,,,0.00,WUHU216HW,2013-03-04 17:20:00,
2013-03-04 09:25:00,38.9,35.0,29.84,North,0,5.8,5.8,86,0.00,,,0.00,WUHU216HW,2013-03-04 17:25:00,
2013-03-04 09:30:00,39.1,35.2,29.84,NNW,338,4.5,5.8,86,0.00,,,0.00,WUHU216HW,2013-03-04 17:30:00,
2013-03-04 09:35:00,39.2,35.4,29.84,North,0,2.2,6.3,86,0.00,,,0.00,WUHU216HW,2013-03-04 17:35:00,
2013-03-04 09:40:00,39.2,35.4,29.84,ENE,68,3.1,6.3,86,0.00,,,0.00,WUHU216HW,2013-03-04 17:40:00,
2013-03-04 09:45:00,39.6,35.7,29.84,ENE,68,3.1,6.3,86,0.00,,,0.00,WUHU216HW,2013-03-04 17:45:00,
2013-03-04 09:50:00,40.0,36.1,29.84,North,0,1.6,6.3,86,0.00,,,0.00,WUHU216HW,2013-03-04 17:50:00,
2013-03-04 09:55:00,40.5,36.6,29.84,North,0,3.6,4.0,86,0.00,,,0.00,WUHU216HW,2013-03-04 17:55:00,
2013-03-04 10:00:00,40.9,36.4,29.84,NNE,23,2.5,5.4,84,0.00,,,0.00,WUHU216HW,2013-03-04 18:00:00,
2013-03-04 10:05:00,41.2,36.7,29.84,NE,45,1.8,6.0,84,0.00,,,0.00,WUHU216HW,2013-03-04 18:05:00,
2013-03-04 10:10:00,41.6,36.7,29.83,NNE,23,5.6,7.4,83,0.00,,,0.00,WUHU216HW,2013-03-04 18:10:00,
2013-03-04 10:15:00,41.6,36.5,29.83,NE,45,2.5,7.4,82,0.00,,,0.00,WUHU216HW,2013-03-04 18:15:00,
2013-03-04 10:20:00,41.9,36.5,29.83,NNE,23,5.6,5.6,81,0.00,,,0.00,WUHU216HW,2013-03-04 18:20:00,
2013-03-04 10:25:00,41.9,36.5,29.83,NE,45,7.4,7.4,81,0.00,,,0.00,WUHU216HW,2013-03-04 18:25:00,
2013-03-04 10:29:00,42.3,36.8,29.83,NE,45,5.4,7.4,81,0.00,,,0.00,WUHU216HW,2013-03-04 18:29:00,
2013-03-04 10:30:00,42.3,36.8,29.83,NE,45,5.4,7.4,81,0.00,,,0.00,WUHU216HW,2013-03-04 18:30:00,
2013-03-04 10:35:00,42.7,36.5,29.83,NE,45,2.5,7.4,79,0.00,,,0.00,WUHU216HW,2013-03-04 18:35:00,
2013-03-04 10:40:00,43.0,36.6,29.82,North,0,4.3,7.4,78,0.00,,,0.00,WUHU216HW,2013-03-04 18:40:00,
2013-03-04 10:45:00,43.2,36.5,29.82,North,0,4.7,6.5,77,0.00,,,0.00,WUHU216HW,2013-03-04 18:45:00,
2013-03-04 10:50:00,43.4,36.6,29.82,ENE,68,3.6,6.5,77,0.00,,,0.00,WUHU216HW,2013-03-04 18:50:00,
2013-03-04 10:55:00,43.6,36.5,29.82,NE,45,5.6,7.8,76,0.00,,,0.00,WUHU216HW,2013-03-04 18:55:00,
2013-03-04 11:00:00,43.7,36.3,29.82,ENE,68,3.6,7.8,75,0.00,,,0.00,WUHU216HW,2013-03-04 19:00:00,
2013-03-04 11:05:00,43.9,36.5,29.81,ENE,68,2.5,7.4,75,0.00,,,0.00,WUHU216HW,2013-03-04 19:05:00,
2013-03-04 11:10:00,43.9,35.8,29.81,ESE,113,4.7,7.6,73,0.00,,,0.00,WUHU216HW,2013-03-04 19:10:00,
2013-03-04 11:15:00,44.1,35.3,29.81,NE,45,4.0,7.6,71,0.00,,,0.00,WUHU216HW,2013-03-04 19:15:00,
2013-03-04 11:20:00,44.1,35.6,29.80,NNE,23,4.0,6.3,72,0.00,,,0.00,WUHU216HW,2013-03-04 19:20:00,
2013-03-04 11:25:00,44.1,35.0,29.80,North,0,3.1,4.9,70,0.00,,,0.00,WUHU216HW,2013-03-04 19:25:00,
2013-03-04 11:30:00,44.5,35.3,29.80,NNE,23,4.3,9.4,70,0.00,,,0.00,WUHU216HW,2013-03-04 19:30:00,
2013-03-04 11:35:00,44.6,34.8,29.80,NNW,338,3.6,9.4,68,0.00,,,0.00,WUHU216HW,2013-03-04 19:35:00,
2013-03-04 11:40:00,44.6,34.3,29.79,ENE,68,2.9,4.7,67,0.00,,,0.00,WUHU216HW,2013-03-04 19:40:00,
2013-03-04 11:45:00,45.0,35.1,29.79,NNW,338,1.8,4.7,68,0.00,,,0.00,WUHU216HW,2013-03-04 19:45:00,
2013-03-04 11:50:00,45.4,34.7,29.79,NNW,338,1.8,4.7,66,0.00,,,0.00,WUHU216HW,2013-03-04 19:50:00,
2013-03-04 11:55:00,45.5,34.8,29.79,North,0,3.1,4.9,66,0.00,,,0.00,WUHU216HW,2013-03-04 19:55:00,
2013-03-04 12:00:00,46.1,35.7,29.78,NNW,338,2.5,4.9,67,0.00,,,0.00,WUHU216HW,2013-03-04 20:00:00,
2013-03-04 12:05:00,46.3,34.8,29.78,North,0,5.4,5.4,64,0.00,,,0.00,WUHU216HW,2013-03-04 20:05:00,
2013-03-04 12:10:00,46.3,34.3,29.78,NE,45,3.6,5.4,63,0.00,,,0.00,WUHU216HW,2013-03-04 20:10:00,
2013-03-04 12:15:00,46.4,34.5,29.77,North,0,2.7,4.7,63,0.00,,,0.00,WUHU216HW,2013-03-04 20:15:00,
2013-03-04 12:20:00,46.8,34.8,29.77,NW,315,1.8,4.7,63,0.00,,,0.00,WUHU216HW,2013-03-04 20:20:00,
2013-03-04 12:25:00,47.2,35.2,29.77,North,0,6.9,6.9,63,0.00,,,0.00,WUHU216HW,2013-03-04 20:25:00,
2013-03-04 12:30:00,47.3,34.6,29.76,North,0,2.7,6.9,61,0.00,,,0.00,WUHU216HW,2013-03-04 20:30:00,
2013-03-04 12:35:00,47.3,34.6,29.76,NNW,338,2.5,6.0,61,0.00,,,0.00,WUHU216HW,2013-03-04 20:35:00,
2013-03-04 12:40:00,47.5,35.2,29.76,NE,45,4.5,6.0,62,0.00,,,0.00,WUHU216HW,2013-03-04 20:40:00,
2013-03-04 12:45:00,47.9,35.1,29.76,ENE,68,3.4,4.7,61,0.00,,,0.00,WUHU216HW,2013-03-04 20:45:00,
2013-03-04 12:50:00,48.1,34.9,29.75,NNE,23,6.3,6.3,60,0.00,,,0.00,WUHU216HW,2013-03-04 20:50:00,
2013-03-04 12:55:00,48.2,35.5,29.74,NE,45,6.5,6.5,61,0.00,,,0.00,WUHU216HW,2013-03-04 20:55:00,
2013-03-04 13:00:00,48.6,34.9,29.74,NE,45,7.6,7.6,59,0.00,,,0.00,WUHU216HW,2013-03-04 21:00:00,
2013-03-04 13:05:00,49.1,35.9,29.74,NE,45,3.1,7.6,60,0.00,,,0.00,WUHU216HW,2013-03-04 21:05:00,
2013-03-04 13:10:00,49.5,33.9,29.74,NE,45,5.1,7.8,55,0.00,,,0.00,WUHU216HW,2013-03-04 21:10:00,
2013-03-04 13:15:00,49.7,34.1,29.73,NNE,23,3.4,7.8,55,0.00,,,0.00,WUHU216HW,2013-03-04 21:15:00,
2013-03-04 13:20:00,49.9,34.7,29.73,North,0,2.5,7.4,56,0.00,,,0.00,WUHU216HW,2013-03-04 21:20:00,
2013-03-04 13:25:00,50.0,34.5,29.73,East,90,2.0,6.3,55,0.00,,,0.00,WUHU216HW,2013-03-04 21:25:00,
2013-03-04 13:30:00,50.0,34.0,29.73,East,90,3.6,6.0,54,0.00,,,0.00,WUHU216HW,2013-03-04 21:30:00,
2013-03-04 13:35:00,50.6,35.4,29.73,NE,45,7.6,7.6,56,0.00,,,0.00,WUHU216HW,2013-03-04 21:35:00,
2013-03-04 13:40:00,50.8,35.1,29.72,ENE,68,2.5,7.6,55,0.00,,,0.00,WUHU216HW,2013-03-04 21:40:00,
2013-03-04 13:45:00,50.9,34.4,29.72,North,0,1.6,3.8,53,0.00,,,0.00,WUHU216HW,2013-03-04 21:45:00,
2013-03-04 13:50:00,50.8,32.9,29.72,North,0,4.0,7.6,50,0.00,,,0.00,WUHU216HW,2013-03-04 21:50:00,
2013-03-04 13:55:00,50.8,33.3,29.72,NNW,338,2.5,7.6,51,0.00,,,0.00,WUHU216HW,2013-03-04 21:55:00,
2013-03-04 14:00:00,50.8,32.3,29.72,NNW,338,4.0,6.3,49,0.00,,,0.00,WUHU216HW,2013-03-04 22:00:00,
2013-03-04 14:05:00,50.9,32.5,29.71,North,0,3.6,6.3,49,0.00,,,0.00,WUHU216HW,2013-03-04 22:05:00,
2013-03-04 14:10:00,50.9,32.5,29.71,North,0,8.3,8.3,49,0.00,,,0.00,WUHU216HW,2013-03-04 22:10:00,
2013-03-04 14:15:00,51.1,31.0,29.71,NNE,23,4.7,8.3,46,0.00,,,0.00,WUHU216HW,2013-03-04 22:15:00,
2013-03-04 14:20:00,51.3,32.2,29.71,North,0,5.6,7.6,48,0.00,,,0.00,WUHU216HW,2013-03-04 22:20:00,
2013-03-04 14:25:00,51.3,31.2,29.71,NNW,338,5.6,6.5,46,0.00,,,0.00,WUHU216HW,2013-03-04 22:25:00,
2013-03-04 14:30:00,51.3,32.2,29.71,North,0,5.6,6.7,48,0.00,,,0.00,WUHU216HW,2013-03-04 22:30:00,
2013-03-04 14:35:00,51.5,32.4,29.70,NNE,23,2.2,6.7,48,0.00,,,0.00,WUHU216HW,2013-03-04 22:35:00,
2013-03-04 14:41:00,51.7,32.6,29.70,NE,45,3.8,6.7,48,0.00,,,0.00,WUHU216HW,2013-03-04 22:41:00,
2013-03-04 14:45:00,51.5,31.9,29.70,NNE,23,6.9,6.9,47,0.00,,,0.00,WUHU216HW,2013-03-04 22:45:00,
2013-03-04 14:50:00,51.5,32.4,29.69,NNE,23,3.4,6.9,48,0.00,,,0.00,WUHU216HW,2013-03-04 22:50:00,
2013-03-04 14:56:00,51.7,33.1,29.69,NE,45,4.0,6.3,49,0.00,,,0.00,WUHU216HW,2013-03-04 22:56:00,
2013-03-04 15:01:00,52.0,32.3,29.69,North,0,6.9,7.4,47,0.00,,,0.00,WUHU216HW,2013-03-04 23:01:00,
2013-03-04 15:06:00,51.7,31.4,29.68,NNE,23,4.0,7.4,46,0.00,,,0.00,WUHU216HW,2013-03-04 23:06:00,
2013-03-04 15:11:00,51.5,31.3,29.68,North,0,4.9,6.9,46,0.00,,,0.00,WUHU216HW,2013-03-04 23:11:00,
2013-03-04 15:16:00,51.1,31.0,29.67,NNE,23,4.0,8.7,46,0.00,,,0.00,WUHU216HW,2013-03-04 23:16:00,
2013-03-04 15:21:00,51.1,31.0,29.67,North,0,2.7,8.9,46,0.00,,,0.00,WUHU216HW,2013-03-04 23:21:00,
2013-03-04 15:26:00,51.1,31.5,29.67,NNE,23,6.5,8.9,47,0.00,,,0.00,WUHU216HW,2013-03-04 23:26:00,
2013-03-04 15:31:00,51.5,32.4,29.67,NW,315,2.9,7.2,48,0.00,,,0.00,WUHU216HW,2013-03-04 23:31:00,
2013-03-04 15:36:00,51.5,31.9,29.67,NE,45,4.0,7.2,47,0.00,,,0.00,WUHU216HW,2013-03-04 23:36:00,
2013-03-04 15:41:00,51.5,31.9,29.66,North,0,2.5,6.5,47,0.00,,,0.00,WUHU216HW,2013-03-04 23:41:00,
2013-03-04 15:46:00,51.7,32.6,29.66,ENE,68,2.5,6.3,48,0.00,,,0.00,WUHU216HW,2013-03-04 23:46:00,
2013-03-04 15:51:00,51.5,31.9,29.66,NNE,23,4.5,6.7,47,0.00,,,0.00,WUHU216HW,2013-03-04 23:51:00,
2013-03-04 15:56:00,51.5,32.4,29.66,ENE,68,5.1,6.7,48,0.00,,,0.00,WUHU216HW,2013-03-04 23:56:00,
2013-03-04 16:01:00,51.5,32.9,29.66,North,0,2.9,6.9,49,0.00,,,0.00,WUHU216HW,2013-03-05 00:01:00,
2013-03-04 16:06:00,51.5,32.9,29.66,NE,45,4.7,6.9,49,0.00,,,0.00,WUHU216HW,2013-03-05 00:06:00,
2013-03-04 16:11:00,51.7,33.1,29.65,ENE,68,3.4,4.7,49,0.00,,,0.00,WUHU216HW,2013-03-05 00:11:00,
2013-03-04 16:16:00,51.3,32.2,29.66,North,0,4.0,7.2,48,0.00,,,0.00,WUHU216HW,2013-03-05 00:16:00,
2013-03-04 16:21:00,51.3,32.8,29.65,North,0,6.3,7.2,49,0.00,,,0.00,WUHU216HW,2013-03-05 00:21:00,
2013-03-04 16:26:00,51.1,32.7,29.65,North,0,5.1,7.8,49,0.00,,,0.00,WUHU216HW,2013-03-05 00:26:00,
2013-03-04 16:31:00,50.9,32.5,29.64,NNE,23,6.9,7.8,49,0.00,,,0.00,WUHU216HW,2013-03-05 00:31:00,
2013-03-04 16:36:00,50.8,32.3,29.64,North,0,1.6,6.9,49,0.00,,,0.00,WUHU216HW,2013-03-05 00:36:00,
2013-03-04 16:41:00,50.8,32.9,29.66,North,0,3.8,6.9,50,0.00,,,0.00,WUHU216HW,2013-03-05 00:41:00,
2013-03-04 16:46:00,50.8,32.9,29.65,North,0,5.4,6.5,50,0.00,,,0.00,WUHU216HW,2013-03-05 00:46:00,
2013-03-04 16:51:00,50.4,33.0,29.65,NNW,338,2.9,6.5,51,0.00,,,0.00,WUHU216HW,2013-03-05 00:51:00,
2013-03-04 16:56:00,50.2,32.9,29.65,NNE,23,5.1,5.4,51,0.00,,,0.00,WUHU216HW,2013-03-05 00:56:00,
2013-03-04 17:01:00,50.0,33.1,29.64,North,0,4.0,5.6,52,0.00,,,0.00,WUHU216HW,2013-03-05 01:01:00,
2013-03-04 17:06:00,50.0,33.1,29.63,NNE,23,4.5,5.6,52,0.00,,,0.00,WUHU216HW,2013-03-05 01:06:00,
2013-03-04 17:11:00,49.9,32.9,29.63,WNW,293,4.0,4.9,52,0.00,,,0.00,WUHU216HW,2013-03-05 01:11:00,
2013-03-04 17:16:00,49.7,33.2,29.63,NNW,338,4.0,7.2,53,0.00,,,0.00,WUHU216HW,2013-03-05 01:16:00,
2013-03-04 17:21:00,49.3,32.9,29.64,North,0,2.5,7.2,53,0.00,,,0.00,WUHU216HW,2013-03-05 01:21:00,
2013-03-04 17:26:00,49.1,32.7,29.64,NNE,23,4.0,4.5,53,0.00,,,0.00,WUHU216HW,2013-03-05 01:26:00,
2013-03-04 17:31:00,48.6,32.7,29.64,North,0,3.6,4.5,54,0.00,,,0.00,WUHU216HW,2013-03-05 01:31:00,
2013-03-04 17:36:00,48.4,33.0,29.64,NNW,338,3.4,3.6,55,0.00,,,0.00,WUHU216HW,2013-03-05 01:36:00,
2013-03-04 17:41:00,48.1,32.6,29.63,NNW,338,2.7,3.6,55,0.00,,,0.00,WUHU216HW,2013-03-05 01:41:00,
2013-03-04 17:46:00,47.7,32.2,29.63,NNE,23,2.9,3.6,55,0.00,,,0.00,WUHU216HW,2013-03-05 01:46:00,
2013-03-04 17:51:00,47.3,32.4,29.62,NNE,23,2.5,4.0,56,0.00,,,0.00,WUHU216HW,2013-03-05 01:51:00,
2013-03-04 17:56:00,47.2,32.7,29.63,North,0,1.6,4.0,57,0.00,,,0.00,WUHU216HW,2013-03-05 01:56:00,
2013-03-04 18:01:00,46.8,32.3,29.63,North,0,2.7,4.0,57,0.00,,,0.00,WUHU216HW,2013-03-05 02:01:00,
2013-03-04 18:06:00,46.4,32.0,29.62,North,0,2.7,3.6,57,0.00,,,0.00,WUHU216HW,2013-03-05 02:06:00,
2013-03-04 18:11:00,46.1,32.0,29.63,NNW,338,2.7,3.4,58,0.00,,,0.00,WUHU216HW,2013-03-05 02:11:00,
2013-03-04 18:16:00,45.9,32.0,29.63,NNW,338,3.1,3.4,58,0.00,,,0.00,WUHU216HW,2013-03-05 02:16:00,
2013-03-04 18:21:00,45.7,32.2,29.63,NNE,23,2.7,3.1,59,0.00,,,0.00,WUHU216HW,2013-03-05 02:21:00,
2013-03-04 18:26:00,45.4,32.3,29.63,North,0,2.9,2.9,60,0.00,,,0.00,WUHU216HW,2013-03-05 02:26:00,
2013-03-04 18:31:00,45.4,32.3,29.63,North,0,1.6,3.6,60,0.00,,,0.00,WUHU216HW,2013-03-05 02:31:00,
2013-03-04 18:36:00,45.0,32.4,29.62,NNW,338,2.0,3.6,61,0.00,,,0.00,WUHU216HW,2013-03-05 02:36:00,
2013-03-04 18:41:00,45.0,32.4,29.62,NNW,338,1.8,3.6,61,0.00,,,0.00,WUHU216HW,2013-03-05 02:41:00,
2013-03-04 18:46:00,44.8,32.2,29.61,NNE,23,1.3,2.9,61,0.00,,,0.00,WUHU216HW,2013-03-05 02:46:00,
2013-03-04 18:51:00,44.6,32.4,29.61,North,0,0.7,3.1,62,0.00,,,0.00,WUHU216HW,2013-03-05 02:51:00,
2013-03-04 18:56:00,44.3,32.0,29.60,NE,45,1.6,3.1,62,0.00,,,0.00,WUHU216HW,2013-03-05 02:56:00,
2013-03-04 19:01:00,44.3,32.5,29.60,North,0,1.1,2.5,63,0.00,,,0.00,WUHU216HW,2013-03-05 03:01:00,
2013-03-04 19:06:00,44.1,32.3,29.61,North,0,1.1,3.1,63,0.00,,,0.00,WUHU216HW,2013-03-05 03:06:00,
2013-03-04 19:11:00,43.9,32.1,29.61,North,0,1.1,4.3,63,0.00,,,0.00,WUHU216HW,2013-03-05 03:11:00,
2013-03-04 19:16:00,43.7,32.0,29.61,North,0,2.0,4.3,63,0.00,,,0.00,WUHU216HW,2013-03-05 03:16:00,
2013-03-04 19:21:00,43.6,32.1,29.61,NNE,23,1.3,2.2,64,0.00,,,0.00,WUHU216HW,2013-03-05 03:21:00,
2013-03-04 19:26:00,43.2,31.8,29.61,North,0,3.4,3.8,64,0.00,,,0.00,WUHU216HW,2013-03-05 03:26:00,
2013-03-04 19:31:00,43.0,32.1,29.60,NNE,23,2.9,4.0,65,0.00,,,0.00,WUHU216HW,2013-03-05 03:31:00,
2013-03-04 19:36:00,42.8,31.9,29.60,NW,315,1.8,4.0,65,0.00,,,0.00,WUHU216HW,2013-03-05 03:36:00,
2013-03-04 19:41:00,42.7,32.0,29.60,NNE,23,0.2,3.4,66,0.00,,,0.00,WUHU216HW,2013-03-05 03:41:00,
2013-03-04 19:46:00,42.5,32.0,29.60,North,0,1.6,3.4,66,0.00,,,0.00,WUHU216HW,2013-03-05 03:46:00,
2013-03-04 19:51:00,42.3,32.1,29.60,North,0,1.1,1.8,67,0.00,,,0.00,WUHU216HW,2013-03-05 03:51:00,
2013-03-04 19:56:00,42.1,32.0,29.59,North,0,1.1,1.8,67,0.00,,,0.00,WUHU216HW,2013-03-05 03:56:00,
2013-03-04 20:01:00,41.9,31.8,29.60,NNE,23,1.1,1.1,67,0.00,,,0.00,WUHU216HW,2013-03-05 04:01:00,
2013-03-04 20:06:00,41.8,31.6,29.60,NNE,23,0.7,1.1,67,0.00,,,0.00,WUHU216HW,2013-03-05 04:06:00,
2013-03-04 20:11:00,41.6,31.4,29.60,NNE,23,1.1,1.1,67,0.00,,,0.00,WUHU216HW,2013-03-05 04:11:00,
2013-03-04 20:16:00,41.4,31.2,29.59,NNE,23,1.1,1.8,67,0.00,,,0.00,WUHU216HW,2013-03-05 04:16:00,
2013-03-04 20:21:00,41.0,31.3,29.59,NNE,23,0.4,1.8,68,0.00,,,0.00,WUHU216HW,2013-03-05 04:21:00,
2013-03-04 20:26:00,40.7,31.0,29.59,NNE,23,1.1,1.3,68,0.00,,,0.00,WUHU216HW,2013-03-05 04:26:00,
2013-03-04 20:31:00,40.7,31.3,29.59,NNE,23,1.6,1.6,69,0.00,,,0.00,WUHU216HW,2013-03-05 04:31:00,
2013-03-04 20:36:00,40.5,31.5,29.60,North,0,0.2,2.5,70,0.00,,,0.00,WUHU216HW,2013-03-05 04:36:00,
2013-03-04 20:41:00,40.5,31.5,29.59,North,0,1.1,2.5,70,0.00,,,0.00,WUHU216HW,2013-03-05 04:41:00,
2013-03-04 20:46:00,40.3,31.3,29.59,North,0,1.1,1.6,70,0.00,,,0.00,WUHU216HW,2013-03-05 04:46:00,
2013-03-04 20:51:00,40.1,31.5,29.58,NNE,23,1.1,1.8,71,0.00,,,0.00,WUHU216HW,2013-03-05 04:51:00,
2013-03-04 20:56:00,40.0,31.3,29.58,NNE,23,1.6,1.8,71,0.00,,,0.00,WUHU216HW,2013-03-05 04:56:00,
2013-03-04 21:00:00,40.0,31.3,29.58,North,0,1.3,1.8,71,0.00,,,0.00,WUHU216HW,2013-03-05 05:00:00,
2013-03-04 21:05:00,39.8,31.2,29.58,NNE,23,0.4,2.5,71,0.00,,,0.00,WUHU216HW,2013-03-05 05:05:00,
2013-03-04 21:10:00,39.6,31.0,29.58,North,0,1.3,2.5,71,0.00,,,0.00,WUHU216HW,2013-03-05 05:10:00,
2013-03-04 21:15:00,39.6,31.3,29.58,NNE,23,2.5,2.5,72,0.00,,,0.00,WUHU216HW,2013-03-05 05:15:00,
2013-03-04 21:20:00,39.6,31.3,29.59,NNE,23,1.6,2.5,72,0.00,,,0.00,WUHU216HW,2013-03-05 05:20:00,
2013-03-04 21:25:00,39.4,31.2,29.58,NNE,23,1.1,1.6,72,0.00,,,0.00,WUHU216HW,2013-03-05 05:25:00,
2013-03-04 21:30:00,39.2,31.0,29.58,NNE,23,1.1,1.1,72,0.00,,,0.00,WUHU216HW,2013-03-05 05:30:00,
2013-03-04 21:35:00,39.2,31.2,29.59,NE,45,1.3,1.3,73,0.00,,,0.00,WUHU216HW,2013-03-05 05:35:00,
2013-03-04 21:40:00,39.1,31.2,29.59,NNE,23,1.3,1.3,73,0.00,,,0.00,WUHU216HW,2013-03-05 05:40:00,
2013-03-04 21:45:00,38.9,31.0,29.59,North,0,1.8,1.8,73,0.00,,,0.00,WUHU216HW,2013-03-05 05:45:00,
2013-03-04 21:50:00,38.7,30.8,29.59,NNE,23,1.3,1.8,73,0.00,,,0.00,WUHU216HW,2013-03-05 05:50:00,
2013-03-04 21:55:00,38.7,31.2,29.58,NNE,23,1.8,1.8,74,0.00,,,0.00,WUHU216HW,2013-03-05 05:55:00,
2013-03-04 22:00:00,38.7,31.2,29.58,North,0,0.9,1.8,74,0.00,,,0.00,WUHU216HW,2013-03-05 06:00:00,
2013-03-04 22:05:00,38.7,31.2,29.58,North,0,1.1,1.6,74,0.00,,,0.00,WUHU216HW,2013-03-05 06:05:00,
2013-03-04 22:10:00,38.7,31.2,29.58,NNE,23,1.3,2.5,74,0.00,,,0.00,WUHU216HW,2013-03-05 06:10:00,
2013-03-04 22:15:00,38.7,31.2,29.58,North,0,0.4,2.5,74,0.00,,,0.00,WUHU216HW,2013-03-05 06:15:00,
2013-03-04 22:20:00,38.5,31.0,29.58,NNE,23,1.1,2.0,74,0.00,,,0.00,WUHU216HW,2013-03-05 06:20:00,
2013-03-04 22:25:00,38.5,31.2,29.58,North,0,1.1,1.6,75,0.00,,,0.00,WUHU216HW,2013-03-05 06:25:00,
2013-03-04 22:30:00,38.5,31.2,29.57,North,0,1.3,1.8,75,0.00,,,0.00,WUHU216HW,2013-03-05 06:30:00,
2013-03-04 22:35:00,38.5,31.2,29.57,NNE,23,1.1,1.8,75,0.00,,,0.00,WUHU216HW,2013-03-05 06:35:00,
2013-03-04 22:40:00,38.3,31.1,29.57,NNE,23,1.8,2.0,75,0.00,,,0.00,WUHU216HW,2013-03-05 06:40:00,
2013-03-04 22:45:00,38.5,31.6,29.56,North,0,0.2,4.5,76,0.00,,,0.00,WUHU216HW,2013-03-05 06:45:00,
2013-03-04 22:50:00,38.5,31.2,29.56,NNE,23,1.8,4.5,75,0.00,,,0.00,WUHU216HW,2013-03-05 06:50:00,
2013-03-04 22:55:00,38.3,31.1,29.57,North,0,1.6,2.5,75,0.00,,,0.00,WUHU216HW,2013-03-05 06:55:00,
2013-03-04 23:00:00,38.3,31.1,29.57,North,0,0.4,2.0,75,0.00,,,0.00,WUHU216HW,2013-03-05 07:00:00,
2013-03-04 23:05:00,38.2,31.2,29.56,NNE,23,2.2,2.2,76,0.00,,,0.00,WUHU216HW,2013-03-05 07:05:00,
2013-03-04 23:10:00,38.2,31.2,29.56,North,0,1.1,2.2,76,0.00,,,0.00,WUHU216HW,2013-03-05 07:10:00,
2013-03-04 23:15:00,38.0,31.1,29.56,North,0,3.8,3.8,76,0.00,,,0.00,WUHU216HW,2013-03-05 07:15:00,
2013-03-04 23:20:00,38.2,31.2,29.56,NNE,23,1.3,3.8,76,0.00,,,0.00,WUHU216HW,2013-03-05 07:20:00,
2013-03-04 23:25:00,38.0,31.1,29.56,NNE,23,2.5,2.5,76,0.00,,,0.00,WUHU216HW,2013-03-05 07:25:00,
2013-03-04 23:30:00,38.0,31.1,29.56,North,0,3.6,3.6,76,0.00,,,0.00,WUHU216HW,2013-03-05 07:30:00,
2013-03-04 23:35:00,38.0,31.4,29.55,North,0,1.8,3.6,77,0.00,,,0.00,WUHU216HW,2013-03-05 07:35:00,
2013-03-04 23:40:00,38.0,31.1,29.55,NNE,23,0.7,3.4,76,0.00,,,0.00,WUHU216HW,2013-03-05 07:40:00,
2013-03-04 23:45:00,37.8,30.9,29.55,North,0,1.8,2.5,76,0.00,,,0.00,WUHU216HW,2013-03-05 07:45:00,
2013-03-04 23:50:00,38.0,31.4,29.55,NNE,23,1.1,3.4,77,0.00,,,0.00,WUHU216HW,2013-03-05 07:50:00,
2013-03-04 23:55:00,37.8,31.2,29.55,NNE,23,1.6,3.4,77,0.00,,,0.00,WUHU216HW,2013-03-05 07:55:00,